createdAt,value
2017-07-31T00:00:02.148Z,88.12
2017-07-31T00:05:02.575Z,88.65
2017-07-31T00:10:02.777Z,87.98
2017-07-31T00:15:03.008Z,88.07
2017-07-31T00:20:02.235Z,87.98
2017-07-31T00:25:02.470Z,89.23
2017-07-31T00:30:02.688Z,89.92
2017-07-31T00:35:02.968Z,89.75
2017-07-31T00:40:02.173Z,91.02
2017-07-31T00:45:02.371Z,90.8
2017-07-31T00:50:02.092Z,90.52
2017-07-31T00:55:02.308Z,90.46
2017-07-31T01:00:02.483Z,89.67
2017-07-31T01:05:02.237Z,89.51
2017-07-31T01:10:02.496Z,89.97
2017-07-31T01:15:02.692Z,90.23
2017-07-31T01:20:02.417Z,91.16
2017-07-31T01:25:02.660Z,91.26
2017-07-31T01:30:02.860Z,91.48
2017-07-31T01:35:02.358Z,91.78
2017-07-31T01:40:02.614Z,91.61
2017-07-31T01:45:02.822Z,92.15
2017-07-31T01:50:02.413Z,91.5
2017-07-31T01:55:02.590Z,91.43
2017-07-31T02:00:02.813Z,91.61
2017-07-31T02:05:02.340Z,92.41
2017-07-31T02:10:02.579Z,92.82
2017-07-31T02:15:02.751Z,93.02
2017-07-31T02:20:02.874Z,93.1
2017-07-31T02:25:02.057Z,92.79
2017-07-31T02:30:02.279Z,92.44
2017-07-31T02:35:02.850Z,93.61
2017-07-31T02:40:02.024Z,92.78
2017-07-31T02:45:02.255Z,91.94
2017-07-31T02:50:02.905Z,93.84
2017-07-31T02:55:02.119Z,93.51
2017-07-31T03:00:02.376Z,93.33
2017-07-31T03:05:02.558Z,93.87
2017-07-31T03:10:02.829Z,94.72
2017-07-31T03:15:03.037Z,93.21
2017-07-31T03:20:02.669Z,94.06
2017-07-31T03:25:02.860Z,95.63
2017-07-31T03:30:02.023Z,95.25
2017-07-31T03:35:02.266Z,96.04
2017-07-31T03:40:02.463Z,96.23
2017-07-31T03:45:02.680Z,95.28
2017-07-31T03:50:02.906Z,93.36
2017-07-31T03:55:02.083Z,95.12
2017-07-31T04:00:02.331Z,95.83
2017-07-31T04:05:03.002Z,96.17
2017-07-31T04:10:02.244Z,95.67
2017-07-31T04:15:02.459Z,95.68
2017-07-31T04:20:02.508Z,96.15
2017-07-31T04:25:02.761Z,95.56
2017-07-31T04:30:02.954Z,96.18
2017-07-31T04:35:02.172Z,96.04
2017-07-31T04:40:02.378Z,95.83
2017-07-31T04:45:02.604Z,96.09
2017-07-31T04:50:02.832Z,96.6
2017-07-31T04:55:03.566Z,96.32
2017-07-31T05:00:02.904Z,97.09
2017-07-31T05:05:02.173Z,97.15
2017-07-31T05:10:02.368Z,97.31
2017-07-31T05:15:02.551Z,97.26
2017-07-31T05:20:02.851Z,97.22
2017-07-31T05:25:02.062Z,97.31
2017-07-31T05:30:02.332Z,97.8
2017-07-31T05:35:02.748Z,98.29
2017-07-31T05:40:02.939Z,97.79
2017-07-31T05:45:02.158Z,97.66
2017-07-31T05:50:02.398Z,97.2
2017-07-31T05:55:02.607Z,96.31
2017-07-31T06:00:02.820Z,96.27
2017-07-31T06:05:02.523Z,96.47
2017-07-31T06:10:02.705Z,95.8
2017-07-31T06:15:02.926Z,95.46
2017-07-31T06:20:02.461Z,95.45
2017-07-31T06:25:02.699Z,94.94
2017-07-31T06:30:02.887Z,94.87
2017-07-31T06:35:02.354Z,94.42
2017-07-31T06:40:02.601Z,93.85
2017-07-31T06:45:02.813Z,94.17
2017-07-31T06:50:03.012Z,93.58
2017-07-31T06:55:02.192Z,91.42
2017-07-31T07:00:02.391Z,91.54
2017-07-31T07:05:02.580Z,90.9
2017-07-31T07:10:02.818Z,91.18
2017-07-31T07:15:03.000Z,90.52
2017-07-31T07:20:02.565Z,89.84
2017-07-31T07:25:02.779Z,88.53
2017-07-31T07:30:03.032Z,88.47
2017-07-31T07:35:02.087Z,83.81
2017-07-31T07:40:02.344Z,78.71
2017-07-31T07:45:02.499Z,76.39
2017-07-31T07:50:02.208Z,75.23
2017-07-31T07:55:02.421Z,70.86
2017-07-31T08:00:02.612Z,66.96
2017-07-31T08:05:02.471Z,67.47
2017-07-31T08:10:02.697Z,65.67
2017-07-31T08:15:02.884Z,64.32
2017-07-31T08:20:02.486Z,58.77
2017-07-31T08:25:02.672Z,58.15
2017-07-31T08:30:02.888Z,59.08
2017-07-31T08:35:02.080Z,58.66
2017-07-31T08:40:02.324Z,58.79
2017-07-31T08:45:02.485Z,58.01
2017-07-31T08:50:02.621Z,52.66
2017-07-31T08:55:02.809Z,50.22
2017-07-31T09:00:02.014Z,52.7
2017-07-31T09:05:02.045Z,52.54
2017-07-31T09:10:02.239Z,52.06
2017-07-31T09:15:02.477Z,51.8
2017-07-31T09:20:03.040Z,49.75
2017-07-31T09:25:02.244Z,51.22
2017-07-31T09:30:02.459Z,47.63
2017-07-31T09:35:02.810Z,51.45
2017-07-31T09:40:02.976Z,47.56
2017-07-31T09:45:02.175Z,46.18
2017-07-31T09:50:02.076Z,50.39
2017-07-31T09:55:02.326Z,46.99
2017-07-31T10:00:02.556Z,47.01
2017-07-31T10:05:03.018Z,44.71
2017-07-31T10:10:02.370Z,44.09
2017-07-31T10:15:02.577Z,45.37
2017-07-31T10:20:02.961Z,47.39
2017-07-31T10:25:02.130Z,50.71
2017-07-31T10:30:02.366Z,51.12
2017-07-31T10:35:02.688Z,49.71
2017-07-31T10:40:02.896Z,53.73
2017-07-31T10:45:02.043Z,50.57
2017-07-31T10:50:02.249Z,48.79
2017-07-31T10:55:02.514Z,49.31
2017-07-31T11:00:02.718Z,51.64
2017-07-31T11:05:02.406Z,50.34
2017-07-31T11:10:02.626Z,49.66
2017-07-31T11:15:02.841Z,50.38
2017-07-31T11:20:02.874Z,54.12
2017-07-31T11:25:02.035Z,48.62
2017-07-31T11:30:02.248Z,49.9
2017-07-31T11:35:02.044Z,48.57
2017-07-31T11:40:02.259Z,51.54
2017-07-31T11:45:02.491Z,50.85
2017-07-31T11:50:02.689Z,51.86
2017-07-31T11:55:02.931Z,48.62
2017-07-31T12:00:02.137Z,46.69
2017-07-31T12:05:02.409Z,46.52
2017-07-31T12:10:02.640Z,46.08
2017-07-31T12:15:02.829Z,47.49
2017-07-31T12:20:02.700Z,49.19
2017-07-31T12:25:02.945Z,49.16
2017-07-31T12:30:02.125Z,50.61
2017-07-31T12:35:02.237Z,50.82
2017-07-31T12:40:02.410Z,50.33
2017-07-31T12:45:02.593Z,52.96
2017-07-31T12:50:02.030Z,50.22
2017-07-31T12:55:02.266Z,51.66
2017-07-31T13:00:02.482Z,53.18
2017-07-31T13:05:02.512Z,52.22
2017-07-31T13:10:02.744Z,53.73
2017-07-31T13:15:02.922Z,50.49
2017-07-31T13:20:02.071Z,49.81
2017-07-31T13:25:02.321Z,47.55
2017-07-31T13:30:02.497Z,48.98
2017-07-31T13:35:02.699Z,49.48
2017-07-31T13:40:02.928Z,49.64
2017-07-31T13:45:02.156Z,46.99
2017-07-31T13:50:02.487Z,46.19
2017-07-31T13:55:02.729Z,47.38
2017-07-31T14:00:02.930Z,47.33
2017-07-31T14:05:02.475Z,47.87
2017-07-31T14:10:02.670Z,48.26
2017-07-31T14:15:02.878Z,46
2017-07-31T14:20:02.433Z,45.75
2017-07-31T14:25:02.631Z,43.95
2017-07-31T14:30:02.797Z,46.01
2017-07-31T14:35:03.010Z,49.92
2017-07-31T14:40:02.234Z,46.72
2017-07-31T14:45:02.427Z,45.86
2017-07-31T14:50:02.665Z,46.99
2017-07-31T14:55:02.847Z,46.71
2017-07-31T15:00:02.071Z,47.67
2017-07-31T15:05:02.923Z,48.7
2017-07-31T15:10:02.113Z,45.91
2017-07-31T15:15:02.315Z,46.78
2017-07-31T15:20:02.887Z,47.03
2017-07-31T15:25:02.111Z,47.51
2017-07-31T15:30:02.307Z,47.18
2017-07-31T15:35:02.667Z,45.99
2017-07-31T15:40:02.872Z,46.65
2017-07-31T15:45:02.050Z,46.43
2017-07-31T15:50:02.258Z,45.51
2017-07-31T15:55:02.459Z,46.63
2017-07-31T16:00:02.669Z,46.2
2017-07-31T16:05:02.067Z,45.4
2017-07-31T16:10:02.338Z,47.55
2017-07-31T16:15:02.524Z,47.39
2017-07-31T16:20:02.523Z,46.87
2017-07-31T16:25:02.711Z,47.36
2017-07-31T16:30:02.847Z,46.35
2017-07-31T16:35:02.441Z,44.82
2017-07-31T16:40:02.678Z,44.76
2017-07-31T16:45:02.840Z,44.76
2017-07-31T16:50:02.019Z,42.79
2017-07-31T16:55:02.243Z,42.04
2017-07-31T17:00:02.465Z,43.56
2017-07-31T17:05:02.693Z,44.45
2017-07-31T17:10:02.898Z,43.61
2017-07-31T17:15:02.110Z,43.35
2017-07-31T17:20:02.133Z,44.87
2017-07-31T17:25:02.360Z,42.62
2017-07-31T17:30:02.575Z,43.44
2017-07-31T17:35:02.834Z,44.08
2017-07-31T17:40:02.041Z,43.92
2017-07-31T17:45:02.280Z,44.59
2017-07-31T17:50:02.942Z,44.28
2017-07-31T17:55:02.108Z,44.83
2017-07-31T18:00:02.356Z,44.79
2017-07-31T18:05:02.155Z,45.5
2017-07-31T18:10:02.388Z,45.88
2017-07-31T18:15:02.569Z,46.04
2017-07-31T18:20:02.524Z,46.89
2017-07-31T18:25:02.720Z,46.9
2017-07-31T18:30:02.909Z,47.42
2017-07-31T18:35:02.676Z,49.49
2017-07-31T18:40:02.868Z,49.12
2017-07-31T18:45:02.022Z,48.89
2017-07-31T18:50:02.251Z,48.62
2017-07-31T18:55:02.452Z,48.73
2017-07-31T19:00:02.654Z,48.58
2017-07-31T19:05:02.977Z,49.01
2017-07-31T19:10:02.206Z,49.25
2017-07-31T19:15:02.402Z,49.67
2017-07-31T19:20:02.493Z,50.22
2017-07-31T19:25:02.673Z,50.03
2017-07-31T19:30:02.861Z,50.39
2017-07-31T19:35:02.066Z,50.02
2017-07-31T19:40:02.316Z,50.42
2017-07-31T19:45:02.536Z,53.21
2017-07-31T19:50:02.727Z,58.82
2017-07-31T19:55:02.946Z,61.16
2017-07-31T20:00:02.125Z,63.06
2017-07-31T20:05:02.540Z,63.6
2017-07-31T20:10:02.717Z,62.2
2017-07-31T20:15:02.993Z,64.14
2017-07-31T20:20:02.755Z,65.65
2017-07-31T20:25:02.977Z,65.32
2017-07-31T20:30:02.188Z,68.17
2017-07-31T20:35:02.609Z,67.73
2017-07-31T20:40:02.828Z,68.75
2017-07-31T20:45:03.019Z,70.3
2017-07-31T20:50:02.047Z,70.01
2017-07-31T20:55:02.276Z,71.24
2017-07-31T21:00:02.497Z,69.67
2017-07-31T21:05:02.116Z,71.27
2017-07-31T21:10:02.380Z,71.27
2017-07-31T21:15:02.577Z,71.95
2017-07-31T21:20:02.299Z,72.38
2017-07-31T21:25:02.531Z,72.5
2017-07-31T21:30:02.740Z,72.23
2017-07-31T21:35:02.925Z,74.19
2017-07-31T21:40:02.115Z,74.1
2017-07-31T21:45:02.342Z,74.72
2017-07-31T21:50:02.568Z,74.72
2017-07-31T21:55:02.779Z,73.75
2017-07-31T22:00:03.108Z,75.26
2017-07-31T22:05:02.650Z,75.44
2017-07-31T22:10:02.847Z,75.79
2017-07-31T22:15:02.065Z,76.04
2017-07-31T22:20:02.974Z,74.84
2017-07-31T22:25:02.211Z,76.17
2017-07-31T22:30:02.405Z,74.69
2017-07-31T22:35:02.950Z,76.98
2017-07-31T22:40:02.220Z,75.12
2017-07-31T22:45:02.415Z,76.84
2017-07-31T22:50:02.395Z,78.14
2017-07-31T22:55:02.588Z,78.09
2017-07-31T23:00:02.772Z,78.12
2017-07-31T23:05:02.507Z,78.42
2017-07-31T23:10:02.715Z,78.29
2017-07-31T23:15:02.932Z,78.32
2017-07-31T23:20:02.430Z,78.56
2017-07-31T23:25:02.626Z,79.41
2017-07-31T23:30:02.842Z,80.37
2017-07-31T23:35:02.023Z,80.41
2017-07-31T23:40:02.273Z,81.32
2017-07-31T23:45:02.494Z,83.58
2017-07-31T23:50:02.697Z,82.71
2017-07-31T23:55:02.886Z,82.71
